createdAt,value
2018-01-03T11:31:31.509Z,78.9
2018-01-03T11:32:33.474Z,78.7
2018-01-03T11:33:34.846Z,79.6
2018-01-03T11:34:36.222Z,79.0
2018-01-03T11:35:37.589Z,76.2
2018-01-03T11:36:38.969Z,74.9
2018-01-03T11:37:40.344Z,74.5
2018-01-03T11:38:42.681Z,74.7
2018-01-03T11:39:56.876Z,75.5
2018-01-03T11:40:58.237Z,74.3
2018-01-03T11:41:59.614Z,75.8
2018-01-03T11:43:01.005Z,76.7
2018-01-03T11:44:02.436Z,76.0
2018-01-03T11:45:03.812Z,75.0
2018-01-03T11:46:06.074Z,76.0
2018-01-03T11:47:06.589Z,76.0
2018-01-03T11:48:07.978Z,76.2
2018-01-03T11:49:09.345Z,76.7
2018-01-03T11:50:10.724Z,77.1
2018-01-03T11:51:12.119Z,76.7
2018-01-03T11:52:14.436Z,76.9
2018-01-03T11:53:15.813Z,76.6
2018-01-03T11:54:17.179Z,76.1
2018-01-03T11:55:18.549Z,75.8
2018-01-03T11:56:19.926Z,76.0
2018-01-03T11:57:21.296Z,76.2
2018-01-03T11:58:22.672Z,75.0
2018-01-03T11:59:24.071Z,74.8
2018-01-03T12:00:25.445Z,74.5
2018-01-03T12:01:26.827Z,74.8
2018-01-03T12:02:28.186Z,74.3
2018-01-03T12:03:29.562Z,74.4
2018-01-03T12:04:30.937Z,72.1
2018-01-03T12:05:32.309Z,70.7
2018-01-03T12:06:33.702Z,70.1
2018-01-03T12:07:35.077Z,69.7
2018-01-03T12:08:36.451Z,70.4
2018-01-03T12:09:37.826Z,70.4
2018-01-03T12:10:39.222Z,70.0
2018-01-03T12:11:40.600Z,69.7
2018-01-03T12:12:42.002Z,69.6
2018-01-03T12:13:43.378Z,69.7
2018-01-03T12:14:44.769Z,70.5
2018-01-03T12:15:46.187Z,70.3
2018-01-03T12:16:47.582Z,70.9
2018-01-03T12:17:48.942Z,70.9
2018-01-03T12:18:50.335Z,71.9
2018-01-03T12:19:51.725Z,72.3
2018-01-03T12:20:53.133Z,73.6
2018-01-03T12:21:54.524Z,74.2
2018-01-03T12:22:55.948Z,73.7
2018-01-03T12:23:57.311Z,73.6
2018-01-03T12:24:58.711Z,74.3
2018-01-03T12:26:00.116Z,74.3
2018-01-03T12:27:01.542Z,74.3
2018-01-03T12:28:03.493Z,75.0
2018-01-03T12:29:04.866Z,73.9
2018-01-03T12:30:06.239Z,74.3
2018-01-03T12:31:07.622Z,74.7
2018-01-03T12:32:08.989Z,75.6
2018-01-03T12:33:10.350Z,74.7
2018-01-03T12:34:11.748Z,73.9
2018-01-03T12:35:13.198Z,72.9
2018-01-03T12:36:14.574Z,72.8
2018-01-03T12:37:15.976Z,74.2
2018-01-03T12:38:17.404Z,73.1
2018-01-03T12:39:18.807Z,72.5
2018-01-03T12:40:20.333Z,72.2
2018-01-03T12:41:21.695Z,71.4
2018-01-03T12:42:23.083Z,71.5
2018-01-03T12:43:24.524Z,71.1
2018-01-03T12:44:25.902Z,71.3
2018-01-03T12:45:27.320Z,71.7
2018-01-03T12:46:28.721Z,72.1
2018-01-03T12:47:30.111Z,70.7
2018-01-03T12:48:31.528Z,70.7
2018-01-03T12:49:32.915Z,71.2
2018-01-03T12:50:34.315Z,71.8
2018-01-03T12:51:35.748Z,70.0
2018-01-03T12:52:37.171Z,70.0
2018-01-03T12:53:38.556Z,70.4
2018-01-03T12:54:39.989Z,71.4
2018-01-03T12:55:41.445Z,71.4
2018-01-03T12:56:42.876Z,69.9
2018-01-03T12:57:44.294Z,70.5
2018-01-03T12:58:45.709Z,70.4
2018-01-03T12:59:47.107Z,70.0
2018-01-03T13:00:48.510Z,71.1
2018-01-03T13:01:49.910Z,70.7
2018-01-03T13:02:51.271Z,70.4
2018-01-03T13:03:52.651Z,70.0
2018-01-03T13:04:54.030Z,70.5
2018-01-03T13:05:55.428Z,70.3
2018-01-03T13:06:56.806Z,70.8
2018-01-03T13:07:58.221Z,71.1
2018-01-03T13:08:59.623Z,71.9
2018-01-03T13:10:01.013Z,71.1
2018-01-03T13:11:02.415Z,71.4
2018-01-03T13:12:03.836Z,72.5
2018-01-03T13:13:05.272Z,73.0
2018-01-03T13:14:07.500Z,73.8
2018-01-03T13:15:08.889Z,73.2
2018-01-03T13:16:10.247Z,72.5
2018-01-03T13:17:11.616Z,72.9
2018-01-03T13:18:12.996Z,73.8
2018-01-03T13:19:14.371Z,72.9
2018-01-03T13:20:15.751Z,73.2
2018-01-03T13:21:17.118Z,72.7
2018-01-03T13:22:18.524Z,73.1
2018-01-03T13:23:19.896Z,73.2
2018-01-03T13:24:21.269Z,73.4
2018-01-03T13:25:22.646Z,73.7
2018-01-03T13:26:24.016Z,73.5
2018-01-03T13:27:25.384Z,73.2
2018-01-03T13:28:26.780Z,72.9
2018-01-03T13:29:28.166Z,72.3
2018-01-03T13:30:29.566Z,73.9
2018-01-03T13:31:30.953Z,73.6
2018-01-03T13:32:32.354Z,74.3
2018-01-03T13:33:33.744Z,74.3
2018-01-03T13:34:35.161Z,74.5
2018-01-03T13:35:36.598Z,74.7
2018-01-03T13:36:37.972Z,74.1
2018-01-03T13:37:39.389Z,74.0
2018-01-03T13:38:40.776Z,73.5
2018-01-03T13:39:42.293Z,73.5
2018-01-03T13:40:43.672Z,73.7
2018-01-03T13:41:45.048Z,74.1
2018-01-03T13:42:46.416Z,73.6
2018-01-03T13:43:47.790Z,74.0
2018-01-03T13:44:49.162Z,73.9
2018-01-03T13:45:50.539Z,74.8
2018-01-03T13:46:51.927Z,74.8
2018-01-03T13:47:53.308Z,74.6
2018-01-03T13:48:55.007Z,75.0
2018-01-03T13:49:56.404Z,75.9
2018-01-03T13:50:57.786Z,76.0
2018-01-03T13:51:59.165Z,76.1
2018-01-03T13:53:00.575Z,76.4
2018-01-03T13:54:01.974Z,76.5
2018-01-03T13:55:03.371Z,77.5
2018-01-03T13:56:04.750Z,78.0
2018-01-03T13:57:06.140Z,78.6
2018-01-03T13:58:07.523Z,78.6
2018-01-03T13:59:08.914Z,78.7
2018-01-03T14:00:10.306Z,78.8
2018-01-03T14:01:11.698Z,78.9
2018-01-03T14:02:13.115Z,79.0
2018-01-03T14:03:14.543Z,79.6
2018-01-03T14:04:15.925Z,79.8
2018-01-03T14:05:17.302Z,80.0
2018-01-03T14:06:18.705Z,80.1
2018-01-03T14:07:20.110Z,80.0
2018-01-03T14:08:21.505Z,81.6
2018-01-03T14:09:22.916Z,80.8
2018-01-03T14:10:24.402Z,81.1
2018-01-03T14:11:25.831Z,81.9
2018-01-03T14:12:27.248Z,81.1
2018-01-03T14:13:28.630Z,81.2
2018-01-03T14:14:30.042Z,82.8
2018-01-03T14:15:31.499Z,83.4
2018-01-03T14:16:32.922Z,83.0
2018-01-03T14:17:34.333Z,81.9
2018-01-03T14:18:35.710Z,82.4
2018-01-03T14:19:37.145Z,82.8
2018-01-03T14:20:38.544Z,82.6
2018-01-03T14:21:40.013Z,83.3
2018-01-03T14:22:41.466Z,83.2
2018-01-03T14:23:42.896Z,82.9
2018-01-03T14:24:44.264Z,83.2
2018-01-03T14:25:45.636Z,83.8
2018-01-03T14:26:47.044Z,83.6
2018-01-03T14:27:48.434Z,83.3
2018-01-03T14:28:49.835Z,83.2
2018-01-03T14:29:51.268Z,83.1
2018-01-03T14:30:52.694Z,82.4
2018-01-03T14:31:54.066Z,81.8
2018-01-03T14:32:55.468Z,82.5
2018-01-03T14:33:56.924Z,82.5
2018-01-03T14:34:58.318Z,81.9
2018-01-03T14:35:59.738Z,81.0
2018-01-03T14:37:01.182Z,81.1
2018-01-03T14:38:02.636Z,81.1
2018-01-03T14:39:04.006Z,81.2
2018-01-03T14:40:05.395Z,81.1
2018-01-03T14:41:06.802Z,81.5
2018-01-03T14:42:08.245Z,82.0
2018-01-03T14:43:09.635Z,81.8
2018-01-03T14:44:11.091Z,82.5
2018-01-03T14:45:12.496Z,82.7
2018-01-03T14:46:13.928Z,82.6
2018-01-03T14:47:15.314Z,82.6
2018-01-03T14:48:16.782Z,82.9
2018-01-03T14:49:18.180Z,82.9
2018-01-03T14:50:19.569Z,84.0
2018-01-03T14:51:20.993Z,83.7
2018-01-03T14:52:22.403Z,83.3
2018-01-03T14:53:23.854Z,83.1
2018-01-03T14:54:25.269Z,83.8
2018-01-03T14:55:26.673Z,83.7
2018-01-03T14:56:28.132Z,83.9
2018-01-03T14:57:29.511Z,84.8
2018-01-03T14:58:30.928Z,83.1
2018-01-03T14:59:32.324Z,82.9
2018-01-03T15:00:33.788Z,83.7
2018-01-03T15:01:35.220Z,83.8
2018-01-03T15:02:36.640Z,84.1
2018-01-03T15:03:38.056Z,84.2
2018-01-03T15:04:39.467Z,84.1
2018-01-03T15:05:40.954Z,84.2
2018-01-03T15:06:42.380Z,84.3
2018-01-03T15:07:43.788Z,84.6
2018-01-03T15:08:45.177Z,84.7
2018-01-03T15:09:46.562Z,84.3
2018-01-03T15:10:47.996Z,84.9
2018-01-03T15:11:49.383Z,84.9
2018-01-03T15:12:50.813Z,85.3
2018-01-03T15:13:52.259Z,84.5
2018-01-03T15:14:53.656Z,84.3
2018-01-03T15:15:55.089Z,84.5
2018-01-03T15:16:56.509Z,84.1
2018-01-03T15:17:57.913Z,83.6
2018-01-03T15:18:59.319Z,83.9
2018-01-03T15:20:00.748Z,84.2
2018-01-03T15:21:02.152Z,84.4
2018-01-03T15:22:03.600Z,84.5
2018-01-03T15:23:05.039Z,84.6
2018-01-03T15:24:06.407Z,84.3
2018-01-03T15:25:07.810Z,84.0
2018-01-03T15:26:09.248Z,83.8
2018-01-03T15:27:10.701Z,83.9
2018-01-03T15:28:12.136Z,83.6
2018-01-03T15:29:13.585Z,83.3
2018-01-03T15:30:15.039Z,82.7
2018-01-03T15:31:16.403Z,82.9
2018-01-03T15:32:17.886Z,82.9
2018-01-03T15:33:19.228Z,82.9
2018-01-03T15:34:20.643Z,81.8
2018-01-03T15:35:22.066Z,82.5
2018-01-03T15:36:23.462Z,82.1
2018-01-03T15:37:24.839Z,81.4
2018-01-03T15:38:26.223Z,81.9
2018-01-03T15:39:27.613Z,82.3
2018-01-03T15:40:29.044Z,81.1
2018-01-03T15:41:30.463Z,81.0
2018-01-03T15:42:32.638Z,82.1
2018-01-03T15:43:33.345Z,81.9
2018-01-03T15:44:34.742Z,82.2
2018-01-03T15:45:36.130Z,82.3
2018-01-03T15:46:37.595Z,81.8
2018-01-03T15:47:38.997Z,82.4
2018-01-03T15:48:40.392Z,82.8
2018-01-03T15:49:41.800Z,82.6
2018-01-03T15:50:43.232Z,82.7
2018-01-03T15:51:44.623Z,81.1
2018-01-03T15:52:46.013Z,81.3
2018-01-03T15:53:47.382Z,82.2
2018-01-03T15:54:48.744Z,81.3
2018-01-03T15:55:50.163Z,81.3
2018-01-03T15:56:51.619Z,81.9
2018-01-03T15:57:53.062Z,81.9
2018-01-03T15:58:54.731Z,82.4
2018-01-03T15:59:56.103Z,81.5
2018-01-03T16:00:57.456Z,81.2
2018-01-03T16:01:58.823Z,80.8
2018-01-03T16:03:00.214Z,80.8
2018-01-03T16:04:01.636Z,81.6
2018-01-03T16:05:03.028Z,80.8
2018-01-03T16:06:04.387Z,80.8
2018-01-03T16:07:05.810Z,80.7
2018-01-03T16:08:07.259Z,81.1
2018-01-03T16:09:08.652Z,80.5
2018-01-03T16:10:10.042Z,80.7
2018-01-03T16:11:11.464Z,80.9
2018-01-03T16:12:12.869Z,81.0
2018-01-03T16:13:14.263Z,81.4
2018-01-03T16:14:15.653Z,81.3
2018-01-03T16:15:17.089Z,80.6
2018-01-03T16:16:18.502Z,80.6
2018-01-03T16:17:19.873Z,80.1
2018-01-03T16:18:21.343Z,80.9
2018-01-03T16:19:22.744Z,80.8
2018-01-03T16:20:24.131Z,81.3
2018-01-03T16:21:25.515Z,81.2
2018-01-03T16:22:27.015Z,80.9
2018-01-03T16:23:28.389Z,80.6
2018-01-03T16:24:29.799Z,80.9
2018-01-03T16:25:31.167Z,81.5
2018-01-03T16:26:32.582Z,81.5
2018-01-03T16:27:33.975Z,80.9
2018-01-03T16:28:35.354Z,80.6
2018-01-03T16:29:36.741Z,80.1
2018-01-03T16:30:38.112Z,80.7
2018-01-03T16:31:39.550Z,81.0
2018-01-03T16:32:40.965Z,80.3
2018-01-03T16:33:42.366Z,81.0
2018-01-03T16:34:43.838Z,81.3
2018-01-03T16:35:45.209Z,81.2
2018-01-03T16:36:46.627Z,80.6
2018-01-03T16:37:47.995Z,81.0
2018-01-03T16:38:49.416Z,81.2
2018-01-03T16:39:50.842Z,81.1
2018-01-03T16:40:52.283Z,81.0
2018-01-03T16:41:53.694Z,80.4
2018-01-03T16:42:55.103Z,80.6
2018-01-03T16:43:56.523Z,80.5
2018-01-03T16:44:58.003Z,80.2
2018-01-03T16:45:59.401Z,80.3
2018-01-03T16:47:00.774Z,80.3
2018-01-03T16:48:02.179Z,81.2
2018-01-03T16:49:03.579Z,81.0
2018-01-03T16:50:04.989Z,81.0
2018-01-03T16:51:06.390Z,80.7
2018-01-03T16:52:07.854Z,80.9
2018-01-03T16:53:09.249Z,80.7
2018-01-03T16:54:10.678Z,80.0
2018-01-03T16:55:12.057Z,80.7
2018-01-03T16:56:13.490Z,80.7
2018-01-03T16:57:14.908Z,80.2
2018-01-03T16:58:16.345Z,80.5
2018-01-03T16:59:17.696Z,80.7
2018-01-03T17:00:19.099Z,80.6
2018-01-03T17:01:20.506Z,81.1
2018-01-03T17:02:21.898Z,81.1
2018-01-03T17:03:23.480Z,81.3
2018-01-03T17:04:24.896Z,81.2
2018-01-03T17:05:26.265Z,81.2
2018-01-03T17:06:27.693Z,81.1
2018-01-03T17:07:29.119Z,81.3
2018-01-03T17:08:30.492Z,81.1
2018-01-03T17:09:31.862Z,82.3
2018-01-03T17:10:33.276Z,82.2
2018-01-03T17:11:34.703Z,81.6
2018-01-03T17:12:36.146Z,81.4
2018-01-03T17:13:37.535Z,82.1
2018-01-03T17:14:38.947Z,82.7
2018-01-03T17:15:40.329Z,82.3
2018-01-03T17:16:41.739Z,82.3
2018-01-03T17:17:43.162Z,82.2
2018-01-03T17:18:47.086Z,82.7
2018-01-03T17:19:48.519Z,82.6
2018-01-03T17:20:49.890Z,82.8
2018-01-03T17:21:51.252Z,82.7
2018-01-03T17:22:52.620Z,82.1
2018-01-03T17:23:53.982Z,82.9
2018-01-03T17:24:55.334Z,82.2
2018-01-03T17:25:56.693Z,82.2
2018-01-03T17:26:58.057Z,82.1
2018-01-03T17:27:59.440Z,82.3
2018-01-03T17:29:00.799Z,82.5
2018-01-03T17:30:02.171Z,82.9
2018-01-03T17:31:03.537Z,82.6
2018-01-03T17:32:04.896Z,83.3
2018-01-03T17:33:06.262Z,83.9
2018-01-03T17:34:07.607Z,84.1
2018-01-03T17:35:08.980Z,84.2
2018-01-03T17:36:10.346Z,84.7
2018-01-03T17:37:11.715Z,84.4
2018-01-03T17:38:13.075Z,84.4
2018-01-03T17:39:14.436Z,84.7
2018-01-03T17:40:15.795Z,85.1
2018-01-03T17:41:17.154Z,85.1
2018-01-03T17:42:19.487Z,85.9
2018-01-03T17:43:20.853Z,85.5
2018-01-03T17:44:22.211Z,85.4
2018-01-03T17:45:23.567Z,86.1
2018-01-03T17:46:24.930Z,86.6
2018-01-03T17:47:26.309Z,87.3
2018-01-03T17:48:27.672Z,87.1
2018-01-03T17:49:29.050Z,87.1
2018-01-03T17:50:30.408Z,87.9
2018-01-03T17:51:31.771Z,88.0
2018-01-03T17:52:33.146Z,88.7
2018-01-03T17:53:34.537Z,87.5
2018-01-03T17:54:35.887Z,87.9
2018-01-03T17:55:37.246Z,88.2
2018-01-03T17:56:38.614Z,88.6
2018-01-03T17:57:39.989Z,88.4
2018-01-03T17:58:41.353Z,88.8
2018-01-03T17:59:42.732Z,88.3
2018-01-03T18:00:44.085Z,88.4
2018-01-03T18:01:45.440Z,88.3
2018-01-03T18:02:46.811Z,88.6
2018-01-03T18:03:48.171Z,88.9
2018-01-03T18:04:49.542Z,89.2
2018-01-03T18:05:50.896Z,90.2
2018-01-03T18:06:52.257Z,90.7
2018-01-03T18:07:53.619Z,90.3
2018-01-03T18:08:56.042Z,90.7
2018-01-03T18:09:57.391Z,91.1
2018-01-03T18:10:58.749Z,90.9
2018-01-03T18:12:00.114Z,90.1
2018-01-03T18:13:01.474Z,90.3
2018-01-03T18:14:03.579Z,90.7
2018-01-03T18:15:05.049Z,91.2
2018-01-03T18:16:06.427Z,91.7
2018-01-03T18:17:07.773Z,92.0
2018-01-03T18:18:09.135Z,92.5
2018-01-03T18:19:10.505Z,92.1
2018-01-03T18:20:11.869Z,92.3
2018-01-03T18:21:13.221Z,92.6
2018-01-03T18:22:14.580Z,92.5
2018-01-03T18:23:15.935Z,93.3
2018-01-03T18:24:17.294Z,92.5
2018-01-03T18:25:18.658Z,92.7
2018-01-03T18:26:20.020Z,92.4
2018-01-03T18:27:21.435Z,92.8
2018-01-03T18:28:22.735Z,92.7
2018-01-03T18:29:24.086Z,92.9
2018-01-03T18:30:25.452Z,92.7
2018-01-03T18:31:26.812Z,92.7
2018-01-03T18:32:28.167Z,92.7
2018-01-03T18:33:29.529Z,92.7
2018-01-03T18:34:30.889Z,92.6
2018-01-03T18:35:32.237Z,92.6
2018-01-03T18:36:33.592Z,92.6
2018-01-03T18:37:34.944Z,92.7
2018-01-03T18:38:36.305Z,92.9
2018-01-03T18:39:37.657Z,92.7
2018-01-03T18:40:39.016Z,92.8
2018-01-03T18:41:40.372Z,91.9
2018-01-03T18:42:41.749Z,92.2
2018-01-03T18:43:43.123Z,91.6
2018-01-03T18:44:44.479Z,91.7
2018-01-03T18:45:45.838Z,92.1
2018-01-03T18:46:47.203Z,92.2
2018-01-03T18:47:48.580Z,91.7
2018-01-03T18:48:49.946Z,91.7
2018-01-03T18:49:51.483Z,91.8
2018-01-03T18:50:52.855Z,92.0
2018-01-03T18:51:54.226Z,92.1
2018-01-03T18:52:55.593Z,91.9
2018-01-03T18:53:57.129Z,91.9
2018-01-03T18:54:59.196Z,92.0
2018-01-03T18:55:59.806Z,91.3
2018-01-03T18:57:01.167Z,90.9
2018-01-03T18:58:02.520Z,91.8
2018-01-03T18:59:03.875Z,90.8
2018-01-03T19:00:05.239Z,91.2
2018-01-03T19:01:11.641Z,91.7
2018-01-03T19:02:12.976Z,91.6
2018-01-03T19:03:18.168Z,91.8
2018-01-03T19:04:23.135Z,90.7
2018-01-03T19:05:24.383Z,90.8
2018-01-03T19:06:25.927Z,91.0
2018-01-03T19:07:30.135Z,90.9
2018-01-03T19:08:34.931Z,90.9
2018-01-03T19:09:41.905Z,91.7
2018-01-03T19:10:43.081Z,90.8
2018-01-03T19:11:44.444Z,91.6
2018-01-03T19:12:45.812Z,91.2
2018-01-03T19:13:47.167Z,91.6
2018-01-03T19:14:48.523Z,91.5
2018-01-03T19:15:49.881Z,92.1
2018-01-03T19:16:51.247Z,91.8
2018-01-03T19:17:52.789Z,91.7
2018-01-03T19:18:54.157Z,91.8
2018-01-03T19:19:55.531Z,90.4
2018-01-03T19:20:56.882Z,89.4
2018-01-03T19:21:58.241Z,89.1
2018-01-03T19:22:59.604Z,89.0
2018-01-03T19:24:01.234Z,89.5
2018-01-03T19:25:02.595Z,89.3
2018-01-03T19:26:04.069Z,88.2
2018-01-03T19:27:05.762Z,88.7
2018-01-03T19:28:07.212Z,89.1
2018-01-03T19:29:08.572Z,89.3
2018-01-03T19:30:09.959Z,88.1
2018-01-03T19:31:11.330Z,88.4
2018-01-03T19:32:12.697Z,88.4
2018-01-03T19:33:14.060Z,87.9
2018-01-03T19:34:15.422Z,87.6
2018-01-03T19:35:16.774Z,88.2
2018-01-03T19:36:18.136Z,87.9
2018-01-03T19:37:19.504Z,88.2
2018-01-03T19:38:20.866Z,87.9
2018-01-03T19:39:22.218Z,87.6
2018-01-03T19:40:23.573Z,87.7
2018-01-03T19:41:24.936Z,87.2
2018-01-03T19:42:26.288Z,87.1
2018-01-03T19:43:27.660Z,87.2
2018-01-03T19:44:29.008Z,87.8
2018-01-03T19:45:30.376Z,87.7
2018-01-03T19:46:31.729Z,87.4
2018-01-03T19:47:33.180Z,87.6
2018-01-03T19:48:34.563Z,87.5
2018-01-03T19:49:35.925Z,87.6
2018-01-03T19:50:37.274Z,88.5
2018-01-03T19:51:39.011Z,87.9
2018-01-03T19:52:40.387Z,88.2
2018-01-03T19:53:41.746Z,88.2
2018-01-03T19:54:43.302Z,87.9
2018-01-03T19:55:44.672Z,88.2
2018-01-03T19:56:46.030Z,88.7
2018-01-03T19:57:47.429Z,88.0
2018-01-03T19:58:49.579Z,87.9
2018-01-03T19:59:50.946Z,88.0
2018-01-03T20:00:52.304Z,87.9
2018-01-03T20:01:53.658Z,87.7
2018-01-03T20:02:55.012Z,88.1
2018-01-03T20:03:56.380Z,88.6
2018-01-03T20:04:57.738Z,87.9
2018-01-03T20:05:59.117Z,87.9
2018-01-03T20:07:00.467Z,87.0
2018-01-03T20:08:01.829Z,87.9
2018-01-03T20:09:03.189Z,87.4
2018-01-03T20:10:04.550Z,88.0
2018-01-03T20:11:05.925Z,87.3
2018-01-03T20:12:07.301Z,87.2
2018-01-03T20:13:08.672Z,87.9
2018-01-03T20:14:10.044Z,87.7
2018-01-03T20:15:11.397Z,86.9
2018-01-03T20:16:12.746Z,87.0
2018-01-03T20:17:14.112Z,86.1
2018-01-03T20:18:16.131Z,85.1
2018-01-03T20:19:17.494Z,85.2
2018-01-03T20:20:18.848Z,85.9
2018-01-03T20:21:20.217Z,85.4
2018-01-03T20:22:21.608Z,85.7
2018-01-03T20:23:27.385Z,86.0
2018-01-03T20:24:29.833Z,84.8
2018-01-03T20:25:32.012Z,85.1
2018-01-03T20:26:36.016Z,85.2
2018-01-03T20:27:37.216Z,85.3
2018-01-03T20:28:39.117Z,84.8
2018-01-03T20:29:40.876Z,85.1
2018-01-03T20:30:42.300Z,84.0
2018-01-03T20:31:43.657Z,84.1
2018-01-03T20:32:45.042Z,84.0
2018-01-03T20:33:46.425Z,84.2
2018-01-03T20:34:47.780Z,83.9
2018-01-03T20:35:49.154Z,84.0
2018-01-03T20:36:50.499Z,84.8
2018-01-03T20:37:51.851Z,84.3
2018-01-03T20:38:53.214Z,84.1
2018-01-03T20:39:54.568Z,84.6
2018-01-03T20:40:55.937Z,84.8
2018-01-03T20:41:57.297Z,85.0
2018-01-03T20:42:58.657Z,85.0
2018-01-03T20:44:02.794Z,85.1
2018-01-03T20:45:07.094Z,85.0
2018-01-03T20:46:37.196Z,85.5
2018-01-03T20:47:38.528Z,86.2
2018-01-03T20:48:40.497Z,86.2
2018-01-03T20:49:48.900Z,85.5
2018-01-03T20:50:50.272Z,85.7
2018-01-03T20:51:51.671Z,85.6
2018-01-03T20:52:53.045Z,86.4
2018-01-03T20:53:54.411Z,86.4
2018-01-03T20:54:56.511Z,86.5
2018-01-03T20:55:57.876Z,86.3
2018-01-03T20:56:59.234Z,85.2
2018-01-03T20:58:00.614Z,85.9
2018-01-03T20:59:01.970Z,86.4
2018-01-03T21:00:03.350Z,86.1
2018-01-03T21:01:05.686Z,86.1
2018-01-03T21:02:07.044Z,86.4
2018-01-03T21:03:08.430Z,86.3
2018-01-03T21:04:09.787Z,86.4
2018-01-03T21:05:11.155Z,86.7
2018-01-03T21:06:12.512Z,85.9
2018-01-03T21:07:13.925Z,85.4
2018-01-03T21:08:15.339Z,86.5
2018-01-03T21:09:16.699Z,86.1
2018-01-03T21:10:18.074Z,85.8
2018-01-03T21:11:19.437Z,85.4
2018-01-03T21:12:20.812Z,85.0
2018-01-03T21:13:22.179Z,85.4
2018-01-03T21:14:23.529Z,85.2
2018-01-03T21:15:24.907Z,85.4
2018-01-03T21:16:26.291Z,85.4
2018-01-03T21:17:27.660Z,85.0
2018-01-03T21:18:29.093Z,85.6
2018-01-03T21:19:30.470Z,85.2
2018-01-03T21:20:31.835Z,84.9
2018-01-03T21:21:33.188Z,85.2
2018-01-03T21:22:34.552Z,85.0
2018-01-03T21:23:35.933Z,85.0
2018-01-03T21:24:37.820Z,84.9
2018-01-03T21:25:39.231Z,85.1
2018-01-03T21:26:40.616Z,84.4
2018-01-03T21:27:41.978Z,85.1
2018-01-03T21:28:43.345Z,84.9
2018-01-03T21:29:44.712Z,84.8
2018-01-03T21:30:46.078Z,84.2
2018-01-03T21:31:47.439Z,84.6
2018-01-03T21:32:48.817Z,85.0
2018-01-03T21:33:50.188Z,85.2
2018-01-03T21:34:51.568Z,83.9
2018-01-03T21:35:52.936Z,84.0
2018-01-03T21:36:54.315Z,83.4
2018-01-03T21:37:55.678Z,83.8
2018-01-03T21:38:57.043Z,83.5
2018-01-03T21:39:58.409Z,83.3
2018-01-03T21:40:59.781Z,84.0
2018-01-03T21:42:01.151Z,84.0
2018-01-03T21:43:03.174Z,83.9
2018-01-03T21:44:04.542Z,84.1
2018-01-03T21:45:05.895Z,83.8
2018-01-03T21:46:07.265Z,84.0
2018-01-03T21:47:08.619Z,84.3
2018-01-03T21:48:09.996Z,84.1
2018-01-03T21:49:11.350Z,84.4
2018-01-03T21:50:12.709Z,84.8
2018-01-03T21:51:14.063Z,85.2
2018-01-03T21:52:15.447Z,85.7
2018-01-03T21:53:16.872Z,85.5
2018-01-03T21:54:18.235Z,85.0
2018-01-03T21:55:19.607Z,85.9
2018-01-03T21:56:20.977Z,86.3
2018-01-03T21:57:22.327Z,86.4
2018-01-03T21:58:23.685Z,86.7
2018-01-03T21:59:25.055Z,86.5
2018-01-03T22:00:26.413Z,87.1
2018-01-03T22:01:27.795Z,87.0
2018-01-03T22:02:29.157Z,86.8
2018-01-03T22:03:30.574Z,87.5
2018-01-03T22:04:31.865Z,87.5
2018-01-03T22:05:33.235Z,87.5
2018-01-03T22:06:34.659Z,87.9
2018-01-03T22:07:36.030Z,87.8
2018-01-03T22:08:37.387Z,87.2
2018-01-03T22:09:38.749Z,87.7
2018-01-03T22:10:40.127Z,87.9
2018-01-03T22:11:41.486Z,88.2
2018-01-03T22:12:42.895Z,88.2
2018-01-03T22:13:44.269Z,87.9
2018-01-03T22:14:45.620Z,88.4
2018-01-03T22:15:46.998Z,88.1
2018-01-03T22:16:48.382Z,88.0
2018-01-03T22:17:49.737Z,88.7
2018-01-03T22:18:51.112Z,88.6
2018-01-03T22:19:52.478Z,88.5
2018-01-03T22:20:53.847Z,88.2
2018-01-03T22:21:55.236Z,88.0
2018-01-03T22:22:56.595Z,88.4
2018-01-03T22:23:57.962Z,88.4
2018-01-03T22:24:59.331Z,88.4
2018-01-03T22:26:00.689Z,88.5
2018-01-03T22:27:02.107Z,88.6
2018-01-03T22:28:03.467Z,88.9
2018-01-03T22:29:04.819Z,88.4
2018-01-03T22:30:06.189Z,88.2
2018-01-03T22:31:07.561Z,88.0
2018-01-03T22:32:08.924Z,88.2
2018-01-03T22:33:10.284Z,88.6
2018-01-03T22:34:12.986Z,88.0
2018-01-03T22:35:14.585Z,88.4
2018-01-03T22:36:15.948Z,88.3
2018-01-03T22:37:17.847Z,88.0
2018-01-03T22:38:22.758Z,88.9
2018-01-03T22:39:24.344Z,88.9
2018-01-03T22:40:25.791Z,88.9
2018-01-03T22:41:27.202Z,88.8
2018-01-03T22:42:28.748Z,88.6
2018-01-03T22:43:30.105Z,88.8
2018-01-03T22:44:31.470Z,88.9
2018-01-03T22:45:32.829Z,89.1
2018-01-03T22:46:34.225Z,89.3
2018-01-03T22:47:35.574Z,89.9
2018-01-03T22:48:36.947Z,90.1
2018-01-03T22:49:38.304Z,90.0
2018-01-03T22:50:39.668Z,90.4
2018-01-03T22:51:41.035Z,90.3
2018-01-03T22:52:42.406Z,90.4
2018-01-03T22:53:43.752Z,89.7
2018-01-03T22:54:45.105Z,90.3
2018-01-03T22:55:46.479Z,90.7
2018-01-03T22:56:47.838Z,90.7
2018-01-03T22:57:49.204Z,91.2
2018-01-03T22:58:50.568Z,91.0
2018-01-03T22:59:51.921Z,91.2
2018-01-03T23:00:53.284Z,90.8
2018-01-03T23:01:54.644Z,90.8
2018-01-03T23:02:55.993Z,90.9
2018-01-03T23:03:57.363Z,90.7
2018-01-03T23:04:58.725Z,90.7
2018-01-03T23:06:00.090Z,91.3
2018-01-03T23:07:01.454Z,91.0
2018-01-03T23:08:02.820Z,90.9
2018-01-03T23:09:04.175Z,90.6
2018-01-03T23:10:05.533Z,90.3
2018-01-03T23:11:06.902Z,90.1
2018-01-03T23:12:08.277Z,90.4
2018-01-03T23:13:09.637Z,90.2
2018-01-03T23:14:10.996Z,90.7
2018-01-03T23:15:12.351Z,90.2
2018-01-03T23:16:13.719Z,90.1
2018-01-03T23:17:15.099Z,90.1
2018-01-03T23:18:16.458Z,89.6
2018-01-03T23:19:17.822Z,89.9
2018-01-03T23:20:19.203Z,89.6
2018-01-03T23:21:20.565Z,89.3
2018-01-03T23:22:21.922Z,89.2
2018-01-03T23:23:23.289Z,89.2
2018-01-03T23:24:24.637Z,89.0
2018-01-03T23:25:26.008Z,88.9
2018-01-03T23:26:27.374Z,88.9
2018-01-03T23:27:28.731Z,88.9
2018-01-03T23:28:30.089Z,88.9
2018-01-03T23:29:31.483Z,89.4
2018-01-03T23:30:32.855Z,89.0
2018-01-03T23:31:34.214Z,89.3
2018-01-03T23:32:35.574Z,89.4
2018-01-03T23:33:36.938Z,89.1
2018-01-03T23:34:38.285Z,89.9
2018-01-03T23:35:39.640Z,89.3
2018-01-03T23:36:41.011Z,89.8
2018-01-03T23:37:42.381Z,89.6
2018-01-03T23:38:43.729Z,89.5
2018-01-03T23:39:45.084Z,89.9
2018-01-03T23:40:46.440Z,89.9
2018-01-03T23:41:47.803Z,89.8
2018-01-03T23:42:49.168Z,89.7
2018-01-03T23:43:50.523Z,89.8
2018-01-03T23:44:51.904Z,90.0
2018-01-03T23:45:53.259Z,90.2
2018-01-03T23:46:54.620Z,89.7
2018-01-03T23:47:55.974Z,90.0
2018-01-03T23:48:57.336Z,90.3
2018-01-03T23:49:58.695Z,90.6
2018-01-03T23:51:00.051Z,90.5
2018-01-03T23:52:01.414Z,90.1
2018-01-03T23:53:02.773Z,90.0
2018-01-03T23:54:04.128Z,90.1
2018-01-03T23:55:05.480Z,90.2
2018-01-03T23:56:06.834Z,89.7
2018-01-03T23:57:08.198Z,89.9
2018-01-03T23:58:09.559Z,89.9
2018-01-03T23:59:10.918Z,89.8
